createdAt,value
2023-03-06T14:08:40.098Z,73.21
2023-03-06T14:09:39.957Z,71.36
2023-03-06T14:10:39.865Z,70.09
2023-03-06T14:11:39.763Z,69.46
2023-03-06T14:12:39.648Z,68.82
2023-03-06T14:13:47.177Z,68.05
2023-03-06T14:14:40.363Z,68.22
2023-03-06T14:15:39.213Z,67.52
2023-03-06T14:16:49.370Z,66.92
2023-03-06T14:17:39.887Z,66.28
2023-03-06T14:18:38.683Z,65.48
2023-03-06T14:19:38.495Z,65.28
2023-03-06T14:20:38.300Z,66.25
2023-03-06T14:21:38.147Z,65.45
2023-03-06T14:22:37.965Z,66.16
2023-03-06T14:23:37.716Z,65.02
2023-03-06T14:24:37.533Z,64.83
2023-03-06T14:25:37.265Z,64.62
2023-03-06T14:26:37.047Z,63.92
2023-03-06T14:27:36.837Z,63.72
2023-03-06T14:28:36.631Z,63.32
2023-03-06T14:29:36.381Z,63.92
2023-03-06T14:30:36.149Z,63.59
2023-03-06T14:31:36.086Z,63.39
2023-03-06T14:32:35.771Z,63.29
2023-03-06T14:33:35.556Z,63.22
2023-03-06T14:34:35.271Z,63.29
2023-03-06T14:35:35.108Z,63.09
2023-03-06T14:36:34.783Z,62.59
2023-03-06T14:37:34.546Z,63.29
2023-03-06T14:38:34.326Z,61.69
2023-03-06T14:39:34.071Z,62.46
2023-03-06T14:40:33.853Z,62.37
2023-03-06T14:41:33.571Z,62.19
2023-03-06T14:42:33.331Z,62.49
2023-03-06T14:43:33.091Z,62.89
2023-03-06T14:44:32.828Z,63.09
2023-03-06T14:45:32.577Z,61.99
2023-03-06T14:46:32.383Z,62.29
2023-03-06T14:47:32.077Z,62.49
2023-03-06T14:48:31.867Z,61.49
2023-03-06T14:49:31.566Z,63.09
2023-03-06T14:50:31.312Z,62.09
2023-03-06T14:51:31.066Z,62.59
2023-03-06T14:52:30.799Z,62.70
2023-03-06T14:53:30.561Z,62.19
2023-03-06T14:54:30.301Z,62.46
2023-03-06T14:55:30.019Z,62.59
2023-03-06T14:56:29.855Z,62.39
2023-03-06T14:57:29.476Z,62.59
2023-03-06T14:58:29.252Z,61.40
2023-03-06T14:59:28.951Z,62.79
2023-03-06T15:00:28.713Z,62.70
2023-03-06T15:01:28.448Z,62.59
2023-03-06T15:02:28.209Z,62.99
2023-03-06T15:03:27.910Z,62.59
2023-03-06T15:04:27.656Z,62.99
2023-03-06T15:05:27.351Z,62.49
2023-03-06T15:06:27.088Z,63.79
2023-03-06T15:07:26.842Z,63.39
2023-03-06T15:08:26.567Z,62.49
2023-03-06T15:09:26.298Z,63.29
2023-03-06T15:10:26.032Z,63.89
2023-03-06T15:11:25.771Z,63.69
2023-03-06T15:12:25.514Z,63.79
2023-03-06T15:13:25.314Z,63.69
2023-03-06T15:14:25.041Z,64.39
2023-03-06T15:15:24.777Z,64.29
2023-03-06T15:16:24.581Z,64.39
2023-03-06T15:17:24.276Z,64.29
2023-03-06T15:18:23.998Z,63.89
2023-03-06T15:19:23.734Z,64.49
2023-03-06T15:20:23.464Z,63.79
2023-03-06T15:21:23.204Z,64.89
2023-03-06T15:22:22.928Z,63.53
2023-03-06T15:23:22.686Z,64.19
2023-03-06T15:24:22.405Z,64.32
2023-03-06T15:25:22.163Z,63.92
2023-03-06T15:26:21.877Z,63.92
2023-03-06T15:27:21.618Z,63.49
2023-03-06T15:28:21.392Z,64.09
2023-03-06T15:29:21.091Z,64.69
2023-03-06T15:30:20.821Z,63.89
2023-03-06T15:31:20.606Z,64.49
2023-03-06T15:32:20.387Z,64.79
2023-03-06T15:33:20.052Z,64.59
2023-03-06T15:34:19.748Z,64.79
2023-03-06T15:35:19.537Z,63.79
2023-03-06T15:36:19.220Z,63.89
2023-03-06T15:37:18.941Z,63.82
2023-03-06T15:38:18.704Z,64.49
2023-03-06T15:39:18.412Z,64.49
2023-03-06T15:40:18.189Z,64.59
2023-03-06T15:41:17.874Z,63.89
2023-03-06T15:42:17.609Z,63.79
2023-03-06T15:43:17.357Z,63.79
2023-03-06T15:44:17.102Z,63.89
2023-03-06T15:45:16.858Z,64.52
2023-03-06T15:46:16.548Z,65.02
2023-03-06T15:47:16.285Z,64.52
2023-03-06T15:48:16.041Z,64.92
2023-03-06T15:49:15.746Z,64.72
2023-03-06T15:50:15.491Z,64.62
2023-03-06T15:51:15.299Z,64.52
2023-03-06T15:52:14.949Z,65.02
2023-03-06T15:53:14.700Z,64.92
2023-03-06T15:54:14.423Z,64.62
2023-03-06T15:55:14.162Z,63.62
2023-03-06T15:56:13.887Z,63.82
2023-03-06T15:57:13.638Z,63.92
2023-03-06T15:58:13.509Z,64.03
2023-03-06T15:59:13.089Z,64.22
2023-03-06T16:00:26.362Z,63.72
2023-03-06T16:01:13.588Z,64.55
2023-03-06T16:02:12.307Z,64.86
2023-03-06T16:03:12.066Z,64.95
2023-03-06T16:04:11.801Z,64.86
2023-03-06T16:05:11.518Z,64.95
2023-03-06T16:06:11.256Z,64.75
2023-03-06T16:07:11.005Z,64.92
2023-03-06T16:08:10.751Z,64.95
2023-03-06T16:09:10.480Z,65.05
2023-03-06T16:10:10.226Z,65.05
2023-03-06T16:11:09.974Z,65.16
2023-03-06T16:12:09.686Z,65.05
2023-03-06T16:13:09.426Z,65.16
2023-03-06T16:14:09.139Z,65.16
2023-03-06T16:15:08.864Z,64.86
2023-03-06T16:16:08.664Z,65.12
2023-03-06T16:17:08.325Z,64.92
2023-03-06T16:18:08.062Z,65.62
2023-03-06T16:19:11.569Z,65.12
2023-03-06T16:20:08.517Z,65.12
2023-03-06T16:21:07.266Z,65.12
2023-03-06T16:22:07.005Z,66.13
2023-03-06T16:23:06.767Z,65.52
2023-03-06T16:24:06.496Z,66.13
2023-03-06T16:25:06.241Z,65.52
2023-03-06T16:26:05.984Z,65.42
2023-03-06T16:27:05.728Z,65.33
2023-03-06T16:28:05.481Z,65.33
2023-03-06T16:29:05.221Z,65.52
2023-03-06T16:30:04.974Z,65.42
2023-03-06T16:31:04.731Z,65.62
2023-03-06T16:32:04.543Z,65.02
2023-03-06T16:33:04.191Z,64.83
2023-03-06T16:34:03.921Z,64.62
2023-03-06T16:35:03.660Z,65.02
2023-03-06T16:36:03.398Z,65.42
2023-03-06T16:37:03.144Z,65.42
2023-03-06T16:38:02.888Z,65.83
2023-03-06T16:39:02.615Z,65.52
2023-03-06T16:40:02.348Z,65.62
2023-03-06T16:41:02.095Z,65.33
2023-03-06T16:42:01.834Z,65.52
2023-03-06T16:43:01.592Z,65.42
2023-03-06T16:44:01.311Z,65.12
2023-03-06T16:45:01.067Z,65.22
2023-03-06T16:46:00.815Z,65.12
2023-03-06T16:47:00.539Z,65.22
2023-03-06T16:48:00.453Z,65.33
2023-03-06T16:49:00.035Z,65.02
2023-03-06T16:49:59.823Z,65.42
2023-03-06T16:50:59.531Z,65.33
2023-03-06T16:51:59.279Z,65.33
2023-03-06T16:52:59.047Z,65.52
2023-03-06T16:53:58.762Z,64.83
2023-03-06T16:54:58.504Z,64.92
2023-03-06T16:55:58.258Z,64.83
2023-03-06T16:56:57.983Z,64.62
2023-03-06T16:57:57.733Z,64.72
2023-03-06T16:58:57.486Z,64.49
2023-03-06T16:59:57.212Z,64.03
2023-03-06T17:00:56.955Z,64.79
2023-03-06T17:01:56.698Z,64.99
2023-03-06T17:02:56.437Z,65.49
2023-03-06T17:03:56.227Z,65.22
2023-03-06T17:04:55.922Z,65.09
2023-03-06T17:05:55.664Z,66.09
2023-03-06T17:06:55.412Z,64.99
2023-03-06T17:07:55.140Z,65.39
2023-03-06T17:08:54.906Z,65.29
2023-03-06T17:09:54.625Z,65.29
2023-03-06T17:10:54.348Z,65.69
2023-03-06T17:11:54.088Z,66.49
2023-03-06T17:12:53.824Z,66.69
2023-03-06T17:13:53.577Z,66.49
2023-03-06T17:14:53.299Z,66.42
2023-03-06T17:15:53.102Z,66.49
2023-03-06T17:16:52.823Z,66.89
2023-03-06T17:17:52.518Z,66.09
2023-03-06T17:18:52.274Z,65.06
2023-03-06T17:19:52.049Z,65.99
2023-03-06T17:20:51.745Z,65.19
2023-03-06T17:21:51.493Z,65.49
2023-03-06T17:22:51.235Z,65.29
2023-03-06T17:23:51.006Z,65.69
2023-03-06T17:24:50.715Z,65.39
2023-03-06T17:25:50.449Z,65.39
2023-03-06T17:26:50.188Z,65.59
2023-03-06T17:27:49.929Z,65.06
2023-03-06T17:28:49.687Z,64.86
2023-03-06T17:29:49.408Z,65.49
2023-03-06T17:30:49.211Z,64.99
2023-03-06T17:31:48.901Z,64.86
2023-03-06T17:32:50.318Z,64.26
2023-03-06T17:33:50.313Z,64.96
